METAR Data
IDs: Format: Raw Decoded Include TAF

Data at: 0730 UTC 07 Dec 2022

KCVO 070708Z AUTO 19004KT 1 1/2SM BR OVC002 02/02 A3022 RMK AO2 FZRANO PNO $
KCVO 070656Z AUTO 18004KT 2 1/2SM BR OVC002 02/02 A3023 RMK AO2 SLP239 T00220022 FZRANO PNO $
KCVO 070626Z AUTO 18004KT 4SM BR OVC002 02/02 A3023 RMK AO2 FZRANO PNO $
KCVO 070617Z AUTO 14004KT 2SM BR OVC002 02/02 A3023 RMK AO2 FZRANO PNO $
KCVO 070611Z AUTO VRB03KT 1SM BR OVC002 02/02 A3023 RMK AO2 FZRANO RVRNO PNO $
KCVO 070535Z AUTO 00000KT 1SM BR OVC002 02/02 A3023 RMK AO2 FZRANO RVRNO PNO $
KCVO 070516Z AUTO 00000KT 2 1/2SM BR OVC002 02/02 A3022 RMK AO2 VIS 1 1/2V4 FZRANO PNO $
KCVO 070456Z AUTO 14003KT 1 1/4SM BR OVC002 03/02 A3022 RMK AO2 UPB38E50RAB50E51 SLP235 T00280022 PNO $
KCVO 070443Z AUTO 06003KT 1 1/2SM UP BR OVC002 03/02 A3022 RMK AO2 UPB38 PNO $
KCVO 070434Z AUTO 00000KT 1SM BR OVC002 03/02 A3022 RMK AO2 RVRNO PNO $
KCVO 070425Z AUTO 00000KT 3/4SM BR OVC002 03/02 A3022 RMK AO2 RVRNO PNO $
KCVO 070404Z AUTO 14003KT 1 3/4SM BR OVC002 03/02 A3021 RMK AO2 VIS 1 1/4V2 1/2 PNO $
KCVO 070356Z AUTO 00000KT 2SM BR OVC002 03/02 A3021 RMK AO2 VIS 1 1/4V5 SLP233 T00280022 PNO $
KCVO 070337Z AUTO 15003KT 4SM BR OVC002 03/02 A3020 RMK AO2 PNO $
KCVO 070329Z AUTO 14004KT 1 1/2SM BR OVC002 03/02 A3020 RMK AO2 VIS 1V4 PNO $
KCVO 070322Z AUTO 13004KT 1SM BR OVC002 03/02 A3020 RMK AO2 RVRNO PNO $
KCVO 070307Z AUTO 13005KT 1/2SM FG OVC002 03/03 A3020 RMK AO2 RVRNO PNO $
KCVO 070256Z AUTO 13004KT 1/4SM FG OVC002 03/03 A3020 RMK AO2 SLP228 6//// T00280028 53004 RVRNO PNO $
KCVO 070242Z AUTO 14004KT 1/4SM FG OVC002 03/03 A3020 RMK AO2 RVRNO PNO $
KCVO 070233Z AUTO 16004KT 3/4SM BR OVC002 03/03 A3020 RMK AO2 RVRNO PNO $
KCVO 070227Z AUTO 15004KT 1 1/4SM BR OVC002 03/03 A3019 RMK AO2 PNO $
KCVO 070219Z AUTO 17004KT 1SM BR OVC002 03/03 A3019 RMK AO2 RVRNO PNO $
KCVO 070204Z AUTO 16005KT 1/2SM FG OVC002 03/03 A3019 RMK AO2 RVRNO PNO $
KCVO 070153Z AUTO 16005KT 3/4SM BR OVC002 03/03 A3019 RMK AO2 SLP227 T00330028 RVRNO PNO $
KCVO 070152Z AUTO 16005KT 3/4SM BR OVC002 03/03 A3019 RMK AO2 RVRNO PNO $
KCVO 070132Z AUTO 16005KT 1 3/4SM BR OVC002 03/03 A3019 RMK AO2 VIS 1 1/4V5 PNO $
KCVO 070124Z AUTO 16004KT 5SM BR OVC002 03/03 A3019 RMK AO2 PNO $
KCVO 070056Z AUTO 16005KT 10SM OVC004 03/03 A3018 RMK AO2 SLP222 T00330028 PNO $
KCVO 070046Z AUTO 17005KT 2 1/2SM BR OVC004 04/03 A3018 RMK AO2 PNO $
KCVO 062356Z AUTO 15004KT 10SM OVC006 04/03 A3018 RMK AO2 SLP223 6//// T00440033 10044 20028 55001 PNO $
KCVO 062256Z AUTO 17003KT 10SM OVC006 04/03 A3018 RMK AO2 SLP222 T00440028 PNO $
KCVO 062156Z AUTO 17004KT 10SM OVC006 04/03 A3018 RMK AO2 SLP223 T00440028 PNO $
KCVO 062115Z AUTO 18006KT 10SM OVC006 04/03 A3018 RMK AO2 PNO $
KCVO 062056Z AUTO 15004KT 10SM OVC004 04/03 A3019 RMK AO2 SLP224 6//// T00390028 50000 PNO $
KCVO 061956Z AUTO 15003KT 6SM BR OVC004 04/03 A3018 RMK AO2 SLP223 T00390028 PNO $
KCVO 061856Z AUTO 19004KT 8SM OVC004 03/03 A3019 RMK AO2 SLP226 T00330028 PNO $
KCVO 061756Z AUTO 18003KT 5SM BR OVC004 03/02 A3019 RMK AO2 SLP225 6//// T00280022 10028 20017 53013 PNO $
KCVO 061717Z AUTO 18003KT 6SM BR OVC004 02/02 A3017 RMK AO2 FZRANO PNO $
KCVO 061656Z AUTO 00000KT 3SM BR OVC002 02/02 A3017 RMK AO2 SLP219 T00220017 FZRANO PNO $
KCVO 061644Z AUTO 20003KT 2SM BR OVC002 02/02 A3017 RMK AO2 VIS 1 1/2V3 FZRANO PNO $
KCVO 061637Z AUTO 00000KT 3SM BR OVC002 02/02 A3017 RMK AO2 FZRANO PNO $
KCVO 061628Z AUTO 00000KT 2SM BR OVC002 02/02 A3016 RMK AO2 FZRANO PNO $
KCVO 061607Z AUTO 00000KT 2 1/2SM BR OVC004 02/02 A3016 RMK AO2 FZRANO PNO $
KCVO 061556Z AUTO 00000KT 3SM BR OVC004 02/02 A3016 RMK AO2 SLP217 T00170017 FZRANO PNO $
KCVO 061456Z AUTO 00000KT 6SM BR OVC004 02/01 A3015 RMK AO2 SLP212 6//// T00170011 53005 FZRANO PNO $
KCVO 061445Z AUTO 00000KT 5SM BR OVC004 02/01 A3015 RMK AO2 FZRANO PNO $
KCVO 061356Z AUTO 00000KT 3SM BR OVC002 02/01 A3014 RMK AO2 SLP208 T00170011 FZRANO PNO $
KCVO 061354Z AUTO 00000KT 3SM BR OVC002 02/01 A3014 RMK AO2 FZRANO PNO $
KCVO 061348Z AUTO 00000KT 1 1/4SM BR OVC002 02/01 A3014 RMK AO2 FZRANO PNO $
KCVO 061309Z AUTO 00000KT 1SM BR OVC002 02/01 A3013 RMK AO2 FZRANO RVRNO PNO $
KCVO 061256Z AUTO 00000KT 1 1/2SM BR OVC002 02/01 A3013 RMK AO2 VIS 1V3 SLP205 T00170011 FZRANO PNO $
KCVO 061229Z AUTO 00000KT 1 3/4SM BR OVC002 02/01 A3013 RMK AO2 VIS 1 1/4V3 FZRANO PNO $
KCVO 061222Z AUTO 00000KT 1SM BR OVC002 02/01 A3013 RMK AO2 CIG 001V006 FZRANO RVRNO PNO $
KCVO 061212Z AUTO 00000KT 1 3/4SM BR OVC004 02/01 A3013 RMK AO2 CIG 001V006 FZRANO PNO $
KCVO 061205Z AUTO 00000KT 6SM BR OVC004 02/01 A3013 RMK AO2 FZRANO PNO $
KCVO 061156Z AUTO 00000KT 6SM BR OVC002 02/01 A3013 RMK AO2 CIG 002V005 SLP206 6//// 7//// T00170011 10017 20017 50002 FZRANO PNO $
KCVO 061134Z AUTO 15003KT 3SM BR OVC002 02/01 A3013 RMK AO2 FZRANO PNO $
KCVO 061129Z AUTO 14003KT 1 3/4SM BR OVC002 02/01 A3013 RMK AO2 FZRANO PNO $
KCVO 061120Z AUTO 14003KT 1SM BR OVC002 02/01 A3013 RMK AO2 FZRANO RVRNO PNO $
KCVO 061111Z AUTO 14003KT 3/4SM BR OVC002 02/01 A3013 RMK AO2 FZRANO RVRNO PNO $
KCVO 061104Z AUTO 12003KT 1 3/4SM BR OVC002 02/01 A3013 RMK AO2 FZRANO PNO $
KCVO 061101Z AUTO 00000KT 3SM BR OVC002 02/01 A3013 RMK AO2 FZRANO PNO $
KCVO 061056Z AUTO 00000KT 1 1/4SM BR OVC002 02/01 A3013 RMK AO2 SLP207 T00170011 FZRANO PNO $
KCVO 061051Z AUTO 00000KT 3/4SM BR OVC002 02/01 A3013 RMK AO2 FZRANO RVRNO PNO $
KCVO 061039Z AUTO 15003KT 1SM BR OVC002 02/01 A3013 RMK AO2 FZRANO RVRNO PNO $
KCVO 061031Z AUTO 15003KT 1/2SM FG OVC002 02/01 A3013 RMK AO2 FZRANO RVRNO PNO $
KCVO 061024Z AUTO 00000KT 1SM BR OVC002 02/01 A3013 RMK AO2 VIS 1/2V2 1/2 FZRANO RVRNO PNO $
KCVO 061011Z AUTO 00000KT 2SM BR OVC002 02/01 A3013 RMK AO2 FZRANO PNO $
KCVO 061006Z AUTO 00000KT 1SM BR OVC002 02/01 A3013 RMK AO2 FZRANO RVRNO PNO $
KCVO 060956Z AUTO 00000KT 1/2SM FG OVC002 02/01 A3012 RMK AO2 SLP204 T00170011 FZRANO RVRNO PNO $
KCVO 060943Z AUTO 00000KT 1/2SM FG OVC002 02/01 A3012 RMK AO2 FZRANO RVRNO PNO $
KCVO 060856Z AUTO 18004KT 1/4SM FG OVC002 02/01 A3012 RMK AO2 SLP202 6//// T00170011 51006 FZRANO RVRNO PNO $
KCVO 060848Z AUTO 17003KT 1/2SM FG OVC002 02/01 A3012 RMK AO2 FZRANO RVRNO PNO $
KCVO 060837Z AUTO 15003KT 3/4SM BR OVC002 02/01 A3012 RMK AO2 FZRANO RVRNO PNO $
KCVO 060746Z AUTO 00000KT 1/2SM FG OVC002 02/01 A3012 RMK AO2 FZRANO RVRNO PNO $
KCVO 060736Z AUTO 12003KT 3/4SM BR OVC002 02/01 A3012 RMK AO2 FZRANO RVRNO PNO $
KCVO 060706Z AUTO 00000KT 1SM BR OVC002 02/01 A3011 RMK AO2 FZRANO RVRNO PNO $
KCVO 060656Z AUTO 00000KT 1 1/2SM BR OVC002 02/01 A3011 RMK AO2 SLP200 T00170011 FZRANO PNO $
KCVO 060648Z AUTO 00000KT 2 1/2SM BR OVC002 02/01 A3011 RMK AO2 FZRANO PNO $
KCVO 060626Z AUTO 10003KT 1 1/2SM BR OVC002 02/01 A3011 RMK AO2 VIS 3/4V2 1/2 FZRANO PNO $
KCVO 060617Z AUTO 13003KT 1SM BR OVC002 02/01 A3011 RMK AO2 FZRANO RVRNO PNO $
KCVO 060605Z AUTO 12003KT 3/4SM BR OVC002 02/01 A3010 RMK AO2 FZRANO RVRNO PNO $
KCVO 060553Z AUTO 14003KT 1 1/4SM BR OVC002 01/01 A3010 RMK AO2 SLP196 6//// T00110011 10022 20011 53009 FZRANO PNO $
KCVO 060552Z AUTO 13003KT 1 1/4SM BR OVC002 01/01 A3010 RMK AO2 FZRANO PNO $
KCVO 060521Z AUTO 00000KT 3/4SM BR OVC002 01/01 A3009 RMK AO2 FZRANO RVRNO PNO $
KCVO 060512Z AUTO 12003KT 1SM BR OVC002 01/01 A3009 RMK AO2 FZRANO RVRNO PNO $
KCVO 060456Z AUTO 08003KT 3/4SM BR OVC002 01/01 A3009 RMK AO2 SLP193 T00110011 FZRANO RVRNO PNO $
KCVO 060445Z AUTO 10003KT 3/4SM BR OVC002 01/01 A3009 RMK AO2 FZRANO RVRNO PNO $
KCVO 060438Z AUTO 10003KT 1/2SM FG OVC002 01/01 A3009 RMK AO2 FZRANO RVRNO PNO $
KCVO 060414Z AUTO VRB03KT 3/4SM BR OVC002 02/01 A3008 RMK AO2 FZRANO RVRNO PNO $
KCVO 060356Z AUTO 00000KT 1SM BR OVC002 02/01 A3008 RMK AO2 SLP188 T00170011 FZRANO RVRNO PNO $
KCVO 060351Z AUTO 00000KT 3/4SM BR OVC002 02/01 A3007 RMK AO2 FZRANO RVRNO PNO $
KCVO 060337Z AUTO 19003KT 1 1/2SM BR OVC002 02/01 A3007 RMK AO2 VIS 1 1/4V2 1/2 FZRANO PNO $
KCVO 060328Z AUTO 17003KT 1SM BR OVC002 02/01 A3007 RMK AO2 FZRANO RVRNO PNO $
KCVO 060315Z AUTO 15004KT 1 1/2SM BR OVC002 02/01 A3007 RMK AO2 FZRANO PNO $
KCVO 060256Z AUTO 00000KT 2SM BR OVC002 02/01 A3007 RMK AO2 SLP184 6//// T00170011 50007 FZRANO PNO $
KCVO 060252Z AUTO 00000KT 2SM BR OVC002 02/01 A3007 RMK AO2 FZRANO PNO $
KCVO 060240Z AUTO 00000KT 1 1/4SM BR OVC002 02/01 A3007 RMK AO2 FZRANO PNO $
KCVO 060233Z AUTO 00000KT 2SM BR OVC002 02/01 A3006 RMK AO2 FZRANO PNO $
KCVO 060212Z AUTO 19004KT 1 3/4SM BR OVC002 02/01 A3006 RMK AO2 VIS 1V2 1/2 FZRANO PNO $
KCVO 060156Z AUTO 00000KT 5SM BR OVC002 02/01 A3006 RMK AO2 SLP181 T00170011 FZRANO PNO $
KCVO 060111Z AUTO 17006KT 3SM BR OVC002 02/01 A3005 RMK AO2 FZRANO PNO $
KCVO 060056Z AUTO 17005KT 3SM BR OVC004 02/01 A3004 RMK AO2 SLP177 T00220011 FZRANO PNO $
KCVO 052356Z AUTO 00000KT 4SM BR OVC004 02/02 A3004 RMK AO2 SLP175 6//// T00220017 10028 20022 53004 FZRANO PNO $
KCVO 052256Z AUTO 09003KT 8SM OVC004 03/02 A3003 RMK AO2 SLP172 T00280017 PNO $
KCVO 052156Z AUTO 00000KT 6SM BR OVC004 03/02 A3003 RMK AO2 SLP171 T00280022 PNO $
KCVO 052144Z AUTO 00000KT 5SM BR OVC004 03/02 A3003 RMK AO2 PNO $
KCVO 052128Z AUTO 00000KT 4SM BR OVC002 02/02 A3002 RMK AO2 FZRANO PNO $
KCVO 052120Z AUTO 00000KT 2 1/2SM BR OVC002 02/02 A3003 RMK AO2 FZRANO PNO $
KCVO 052056Z AUTO 16003KT 1 1/2SM BR OVC002 02/02 A3003 RMK AO2 SLP170 6//// T00220017 58002 FZRANO PNO $
KCVO 052005Z AUTO 09003KT 1 1/2SM BR OVC002 02/02 A3003 RMK AO2 FZRANO PNO $
KCVO 051956Z AUTO 07003KT 1SM BR OVC002 02/02 A3003 RMK AO2 SLP171 T00220017 FZRANO RVRNO PNO $
KCVO 051943Z AUTO 04005KT 1SM BR OVC002 02/02 A3003 RMK AO2 FZRANO RVRNO PNO $
KCVO 051931Z AUTO 06004KT 3/4SM BR OVC002 02/02 A3003 RMK AO2 FZRANO RVRNO PNO $